sensor_id;sensor_type;location;lat;lon;timestamp;pressure;altitude;pressure_sealevel;temperature;humidity
56719;BME280;42597;40.636;0.278;2023-03-03T00:00:31;97303.09;;;8.53;48.46
56719;BME280;42597;40.636;0.278;2023-03-03T00:03:02;97292.44;;;7.76;49.80
56719;BME280;42597;40.636;0.278;2023-03-03T00:05:31;97279.53;;;7.90;51.31
56719;BME280;42597;40.636;0.278;2023-03-03T00:07:57;97277.03;;;8.99;47.95
56719;BME280;42597;40.636;0.278;2023-03-03T00:10:22;97271.78;;;9.84;47.94
56719;BME280;42597;40.636;0.278;2023-03-03T00:12:48;97279.94;;;8.94;50.71
56719;BME280;42597;40.636;0.278;2023-03-03T00:15:18;97265.97;;;9.82;46.53
56719;BME280;42597;40.636;0.278;2023-03-03T00:17:44;97272.94;;;9.83;47.55
56719;BME280;42597;40.636;0.278;2023-03-03T00:20:35;97269.47;;;8.59;53.93
56719;BME280;42597;40.636;0.278;2023-03-03T00:23:36;97269.44;;;9.58;50.65
56719;BME280;42597;40.636;0.278;2023-03-03T00:26:17;97254.47;;;10.10;51.95
56719;BME280;42597;40.636;0.278;2023-03-03T00:28:47;97246.97;;;8.97;52.71
56719;BME280;42597;40.636;0.278;2023-03-03T00:31:36;97270.03;;;9.19;47.43
56719;BME280;42597;40.636;0.278;2023-03-03T00:36:43;97263.09;;;10.80;48.28
56719;BME280;42597;40.636;0.278;2023-03-03T00:39:36;97274.50;;;10.21;44.63
56719;BME280;42597;40.636;0.278;2023-03-03T00:42:15;97282.69;;;9.06;47.24
56719;BME280;42597;40.636;0.278;2023-03-03T00:44:51;97273.47;;;9.52;50.75
56719;BME280;42597;40.636;0.278;2023-03-03T00:50:20;97274.72;;;9.92;51.47
56719;BME280;42597;40.636;0.278;2023-03-03T00:53:04;97272.81;;;9.10;50.22
56719;BME280;42597;40.636;0.278;2023-03-03T00:55:30;97276.00;;;8.28;50.01
56719;BME280;42597;40.636;0.278;2023-03-03T00:57:56;97266.44;;;8.81;48.29
56719;BME280;42597;40.636;0.278;2023-03-03T01:00:22;97269.69;;;9.20;50.46
56719;BME280;42597;40.636;0.278;2023-03-03T01:02:47;97273.13;;;10.40;46.84
56719;BME280;42597;40.636;0.278;2023-03-03T01:05:15;97278.09;;;9.76;51.50
56719;BME280;42597;40.636;0.278;2023-03-03T01:07:41;97265.97;;;9.12;50.31
56719;BME280;42597;40.636;0.278;2023-03-03T01:10:07;97263.56;;;9.56;48.07
56719;BME280;42597;40.636;0.278;2023-03-03T01:12:33;97263.72;;;10.33;45.39
56719;BME280;42597;40.636;0.278;2023-03-03T01:14:59;97273.06;;;9.17;49.74
56719;BME280;42597;40.636;0.278;2023-03-03T01:17:24;97247.41;;;11.14;47.53
56719;BME280;42597;40.636;0.278;2023-03-03T01:19:50;97265.00;;;10.52;47.83
56719;BME280;42597;40.636;0.278;2023-03-03T01:22:15;97274.56;;;11.18;48.57
56719;BME280;42597;40.636;0.278;2023-03-03T01:24:41;97267.84;;;9.00;46.23
56719;BME280;42597;40.636;0.278;2023-03-03T01:27:06;97280.41;;;9.29;46.80
56719;BME280;42597;40.636;0.278;2023-03-03T01:29:32;97262.81;;;9.80;47.61
56719;BME280;42597;40.636;0.278;2023-03-03T01:31:57;97259.44;;;9.71;47.23
56719;BME280;42597;40.636;0.278;2023-03-03T01:34:23;97268.66;;;8.79;46.77
56719;BME280;42597;40.636;0.278;2023-03-03T01:36:49;97265.06;;;9.08;48.83
56719;BME280;42597;40.636;0.278;2023-03-03T01:39:14;97255.78;;;9.30;50.90
56719;BME280;42597;40.636;0.278;2023-03-03T01:41:40;97255.06;;;9.79;50.41
56719;BME280;42597;40.636;0.278;2023-03-03T01:44:06;97256.91;;;9.17;49.67
56719;BME280;42597;40.636;0.278;2023-03-03T01:46:45;97263.41;;;8.20;48.39
56719;BME280;42597;40.636;0.278;2023-03-03T01:49:38;97258.78;;;9.74;47.84
56719;BME280;42597;40.636;0.278;2023-03-03T01:52:12;97245.03;;;10.04;50.45
56719;BME280;42597;40.636;0.278;2023-03-03T01:54:46;97243.31;;;10.76;49.24
56719;BME280;42597;40.636;0.278;2023-03-03T01:57:20;97244.34;;;10.31;48.53
56719;BME280;42597;40.636;0.278;2023-03-03T01:59:49;97242.56;;;10.11;48.97
56719;BME280;42597;40.636;0.278;2023-03-03T02:02:17;97250.66;;;10.11;47.18
56719;BME280;42597;40.636;0.278;2023-03-03T02:04:43;97240.94;;;9.24;51.33
56719;BME280;42597;40.636;0.278;2023-03-03T02:07:09;97243.59;;;9.94;47.79
56719;BME280;42597;40.636;0.278;2023-03-03T02:12:52;97243.25;;;9.71;51.47
56719;BME280;42597;40.636;0.278;2023-03-03T02:15:27;97243.19;;;10.45;49.14
56719;BME280;42597;40.636;0.278;2023-03-03T02:17:58;97221.41;;;11.25;47.53
56719;BME280;42597;40.636;0.278;2023-03-03T02:20:27;97240.28;;;9.39;48.95
56719;BME280;42597;40.636;0.278;2023-03-03T02:28:23;97240.53;;;9.83;48.21
56719;BME280;42597;40.636;0.278;2023-03-03T02:30:54;97232.22;;;9.88;49.28
56719;BME280;42597;40.636;0.278;2023-03-03T02:33:20;97223.69;;;9.62;47.06
56719;BME280;42597;40.636;0.278;2023-03-03T02:35:46;97233.44;;;10.28;49.82
56719;BME280;42597;40.636;0.278;2023-03-03T02:40:56;97226.75;;;10.50;47.50
56719;BME280;42597;40.636;0.278;2023-03-03T02:43:25;97228.50;;;10.18;46.57
56719;BME280;42597;40.636;0.278;2023-03-03T02:45:53;97197.28;;;10.88;47.57
56719;BME280;42597;40.636;0.278;2023-03-03T02:48:19;97217.16;;;9.75;47.28
56719;BME280;42597;40.636;0.278;2023-03-03T02:50:44;97212.09;;;9.86;49.58
56719;BME280;42597;40.636;0.278;2023-03-03T02:53:10;97215.72;;;8.96;51.23
56719;BME280;42597;40.636;0.278;2023-03-03T02:55:35;97207.75;;;10.74;47.95
56719;BME280;42597;40.636;0.278;2023-03-03T02:58:01;97200.25;;;10.27;48.35
56719;BME280;42597;40.636;0.278;2023-03-03T03:00:26;97213.59;;;10.36;46.31
56719;BME280;42597;40.636;0.278;2023-03-03T03:02:52;97214.53;;;9.05;46.69
56719;BME280;42597;40.636;0.278;2023-03-03T03:05:17;97203.09;;;8.75;49.32
56719;BME280;42597;40.636;0.278;2023-03-03T03:07:43;97200.75;;;9.80;49.24
56719;BME280;42597;40.636;0.278;2023-03-03T03:10:08;97197.38;;;9.59;48.20
56719;BME280;42597;40.636;0.278;2023-03-03T03:12:34;97195.59;;;9.38;51.37
56719;BME280;42597;40.636;0.278;2023-03-03T03:15:00;97192.25;;;8.96;48.77
56719;BME280;42597;40.636;0.278;2023-03-03T03:17:25;97192.34;;;9.70;52.40
56719;BME280;42597;40.636;0.278;2023-03-03T03:19:51;97199.09;;;8.81;47.70
56719;BME280;42597;40.636;0.278;2023-03-03T03:22:16;97198.63;;;9.25;48.98
56719;BME280;42597;40.636;0.278;2023-03-03T03:24:43;97175.34;;;9.45;48.13
56719;BME280;42597;40.636;0.278;2023-03-03T03:27:09;97185.34;;;9.44;50.87
56719;BME280;42597;40.636;0.278;2023-03-03T03:29:34;97186.59;;;9.59;48.22
56719;BME280;42597;40.636;0.278;2023-03-03T03:32:00;97188.25;;;9.14;51.28
56719;BME280;42597;40.636;0.278;2023-03-03T03:34:25;97198.25;;;8.06;51.76
56719;BME280;42597;40.636;0.278;2023-03-03T03:36:51;97207.22;;;8.60;52.15
56719;BME280;42597;40.636;0.278;2023-03-03T03:39:16;97204.69;;;8.13;50.87
56719;BME280;42597;40.636;0.278;2023-03-03T03:41:42;97199.44;;;8.59;49.27
56719;BME280;42597;40.636;0.278;2023-03-03T03:44:08;97186.91;;;10.47;48.90
56719;BME280;42597;40.636;0.278;2023-03-03T03:46:34;97182.38;;;8.13;50.28
56719;BME280;42597;40.636;0.278;2023-03-03T03:48:59;97180.50;;;9.86;51.86
56719;BME280;42597;40.636;0.278;2023-03-03T03:51:25;97181.97;;;10.36;48.42
56719;BME280;42597;40.636;0.278;2023-03-03T03:53:50;97179.16;;;9.80;48.75
56719;BME280;42597;40.636;0.278;2023-03-03T03:56:16;97160.72;;;10.35;48.87
56719;BME280;42597;40.636;0.278;2023-03-03T03:58:41;97181.25;;;10.52;49.94
56719;BME280;42597;40.636;0.278;2023-03-03T04:01:07;97154.25;;;9.34;51.37
56719;BME280;42597;40.636;0.278;2023-03-03T04:03:33;97170.78;;;9.45;50.08
56719;BME280;42597;40.636;0.278;2023-03-03T04:05:59;97170.06;;;9.73;51.14
56719;BME280;42597;40.636;0.278;2023-03-03T04:08:25;97173.75;;;9.93;48.11
56719;BME280;42597;40.636;0.278;2023-03-03T04:10:50;97176.72;;;8.48;49.68
56719;BME280;42597;40.636;0.278;2023-03-03T04:13:16;97187.00;;;8.12;52.11
56719;BME280;42597;40.636;0.278;2023-03-03T04:15:41;97183.03;;;8.85;52.67
56719;BME280;42597;40.636;0.278;2023-03-03T04:18:07;97165.44;;;9.98;51.10
56719;BME280;42597;40.636;0.278;2023-03-03T04:20:33;97156.03;;;9.30;48.32
56719;BME280;42597;40.636;0.278;2023-03-03T04:22:58;97177.00;;;8.55;50.24
56719;BME280;42597;40.636;0.278;2023-03-03T04:25:24;97164.78;;;7.74;51.38
56719;BME280;42597;40.636;0.278;2023-03-03T04:27:50;97162.19;;;9.80;52.31
56719;BME280;42597;40.636;0.278;2023-03-03T04:30:17;97172.34;;;8.43;50.54
56719;BME280;42597;40.636;0.278;2023-03-03T04:32:42;97166.25;;;8.13;51.46
56719;BME280;42597;40.636;0.278;2023-03-03T04:35:09;97172.50;;;8.59;50.37
56719;BME280;42597;40.636;0.278;2023-03-03T04:37:35;97193.19;;;7.24;53.13
56719;BME280;42597;40.636;0.278;2023-03-03T04:40:07;97170.41;;;9.10;51.61
56719;BME280;42597;40.636;0.278;2023-03-03T04:42:33;97155.94;;;10.72;48.69
56719;BME280;42597;40.636;0.278;2023-03-03T04:44:59;97163.13;;;10.12;50.26
56719;BME280;42597;40.636;0.278;2023-03-03T04:47:25;97173.28;;;10.03;51.31
56719;BME280;42597;40.636;0.278;2023-03-03T04:49:50;97163.78;;;9.32;47.98
56719;BME280;42597;40.636;0.278;2023-03-03T04:52:16;97181.63;;;9.24;48.62
56719;BME280;42597;40.636;0.278;2023-03-03T04:54:42;97185.81;;;8.43;51.48
56719;BME280;42597;40.636;0.278;2023-03-03T04:57:07;97177.50;;;10.28;51.15
56719;BME280;42597;40.636;0.278;2023-03-03T04:59:34;97191.91;;;10.20;48.25
56719;BME280;42597;40.636;0.278;2023-03-03T05:01:59;97174.09;;;9.05;51.31
56719;BME280;42597;40.636;0.278;2023-03-03T05:04:25;97175.16;;;9.37;50.63
56719;BME280;42597;40.636;0.278;2023-03-03T05:06:50;97179.66;;;9.46;53.16
56719;BME280;42597;40.636;0.278;2023-03-03T05:09:16;97193.88;;;8.76;50.87
56719;BME280;42597;40.636;0.278;2023-03-03T05:11:41;97148.28;;;10.18;50.98
56719;BME280;42597;40.636;0.278;2023-03-03T05:14:07;97162.28;;;8.98;51.01
56719;BME280;42597;40.636;0.278;2023-03-03T05:16:33;97188.53;;;10.35;49.66
56719;BME280;42597;40.636;0.278;2023-03-03T05:18:58;97173.75;;;9.93;49.07
56719;BME280;42597;40.636;0.278;2023-03-03T05:21:24;97186.44;;;8.61;51.03
56719;BME280;42597;40.636;0.278;2023-03-03T05:23:49;97168.59;;;9.75;49.68
56719;BME280;42597;40.636;0.278;2023-03-03T05:26:15;97170.81;;;9.98;52.69
56719;BME280;42597;40.636;0.278;2023-03-03T05:28:41;97183.00;;;9.67;49.54
56719;BME280;42597;40.636;0.278;2023-03-03T05:31:06;97169.88;;;11.18;48.12
56719;BME280;42597;40.636;0.278;2023-03-03T05:33:32;97175.31;;;8.96;48.63
56719;BME280;42597;40.636;0.278;2023-03-03T05:35:57;97195.88;;;8.67;50.20
56719;BME280;42597;40.636;0.278;2023-03-03T05:38:23;97182.09;;;9.63;52.77
56719;BME280;42597;40.636;0.278;2023-03-03T05:40:49;97203.91;;;9.70;49.35
56719;BME280;42597;40.636;0.278;2023-03-03T05:43:15;97179.44;;;11.00;47.83
56719;BME280;42597;40.636;0.278;2023-03-03T05:45:41;97176.78;;;9.91;51.91
56719;BME280;42597;40.636;0.278;2023-03-03T05:48:06;97187.22;;;9.93;50.17
56719;BME280;42597;40.636;0.278;2023-03-03T05:50:35;97191.72;;;10.01;47.21
56719;BME280;42597;40.636;0.278;2023-03-03T05:53:01;97182.28;;;10.75;49.77
56719;BME280;42597;40.636;0.278;2023-03-03T05:55:27;97183.34;;;10.86;45.65
56719;BME280;42597;40.636;0.278;2023-03-03T05:57:52;97183.47;;;10.62;49.14
56719;BME280;42597;40.636;0.278;2023-03-03T06:00:18;97218.53;;;7.06;51.90
56719;BME280;42597;40.636;0.278;2023-03-03T06:02:44;97191.66;;;9.85;48.14
56719;BME280;42597;40.636;0.278;2023-03-03T06:05:10;97182.88;;;9.63;50.76
56719;BME280;42597;40.636;0.278;2023-03-03T06:07:36;97188.91;;;10.09;48.95
56719;BME280;42597;40.636;0.278;2023-03-03T06:10:02;97201.78;;;8.81;53.86
56719;BME280;42597;40.636;0.278;2023-03-03T06:12:28;97224.34;;;9.34;50.00
56719;BME280;42597;40.636;0.278;2023-03-03T06:14:54;97200.75;;;9.68;51.18
56719;BME280;42597;40.636;0.278;2023-03-03T06:17:19;97224.00;;;8.78;50.06
56719;BME280;42597;40.636;0.278;2023-03-03T06:19:45;97229.38;;;8.78;50.15
56719;BME280;42597;40.636;0.278;2023-03-03T06:22:12;97207.16;;;8.81;53.71
56719;BME280;42597;40.636;0.278;2023-03-03T06:24:37;97195.31;;;9.93;50.98
56719;BME280;42597;40.636;0.278;2023-03-03T06:27:03;97219.72;;;7.64;52.44
56719;BME280;42597;40.636;0.278;2023-03-03T06:29:28;97232.75;;;7.83;52.00
56719;BME280;42597;40.636;0.278;2023-03-03T06:31:54;97215.34;;;9.18;50.23
56719;BME280;42597;40.636;0.278;2023-03-03T06:34:20;97222.31;;;8.53;52.21
56719;BME280;42597;40.636;0.278;2023-03-03T06:36:45;97226.72;;;9.73;52.88
56719;BME280;42597;40.636;0.278;2023-03-03T06:39:12;97240.56;;;7.37;54.79
56719;BME280;42597;40.636;0.278;2023-03-03T06:41:37;97233.72;;;9.04;51.44
56719;BME280;42597;40.636;0.278;2023-03-03T06:44:03;97238.91;;;9.09;54.34
56719;BME280;42597;40.636;0.278;2023-03-03T06:46:28;97225.22;;;9.14;55.01
56719;BME280;42597;40.636;0.278;2023-03-03T06:48:54;97249.66;;;8.97;49.50
56719;BME280;42597;40.636;0.278;2023-03-03T06:51:34;97236.47;;;10.14;51.16
56719;BME280;42597;40.636;0.278;2023-03-03T06:54:08;97239.66;;;9.55;49.59
56719;BME280;42597;40.636;0.278;2023-03-03T06:56:35;97257.13;;;7.39;53.95
56719;BME280;42597;40.636;0.278;2023-03-03T06:59:04;97252.63;;;8.20;52.15
56719;BME280;42597;40.636;0.278;2023-03-03T07:01:34;97256.69;;;8.68;52.06
56719;BME280;42597;40.636;0.278;2023-03-03T07:04:24;97257.91;;;8.37;53.17
56719;BME280;42597;40.636;0.278;2023-03-03T07:06:49;97261.84;;;7.04;54.97
56719;BME280;42597;40.636;0.278;2023-03-03T07:09:22;97262.38;;;8.04;54.67
56719;BME280;42597;40.636;0.278;2023-03-03T07:11:49;97259.38;;;8.26;54.12
56719;BME280;42597;40.636;0.278;2023-03-03T07:14:17;97266.25;;;7.09;53.87
56719;BME280;42597;40.636;0.278;2023-03-03T07:16:44;97260.69;;;8.50;52.34
56719;BME280;42597;40.636;0.278;2023-03-03T07:19:28;97253.53;;;9.32;53.48
56719;BME280;42597;40.636;0.278;2023-03-03T07:21:56;97277.13;;;7.98;53.41
56719;BME280;42597;40.636;0.278;2023-03-03T07:24:25;97284.94;;;8.20;52.34
56719;BME280;42597;40.636;0.278;2023-03-03T07:27:16;97271.00;;;9.02;54.47
56719;BME280;42597;40.636;0.278;2023-03-03T07:29:39;97281.72;;;7.59;55.41
56719;BME280;42597;40.636;0.278;2023-03-03T07:32:34;97262.03;;;8.56;53.64
56719;BME280;42597;40.636;0.278;2023-03-03T07:35:20;97285.09;;;8.45;51.77
56719;BME280;42597;40.636;0.278;2023-03-03T07:37:48;97283.16;;;7.95;52.87
56719;BME280;42597;40.636;0.278;2023-03-03T07:42:57;97289.28;;;8.33;54.00
56719;BME280;42597;40.636;0.278;2023-03-03T07:45:29;97301.00;;;8.37;52.87
56719;BME280;42597;40.636;0.278;2023-03-03T07:48:04;97299.81;;;7.88;53.51
56719;BME280;42597;40.636;0.278;2023-03-03T07:50:34;97306.81;;;8.10;53.01
56719;BME280;42597;40.636;0.278;2023-03-03T07:53:00;97307.41;;;8.87;54.28
56719;BME280;42597;40.636;0.278;2023-03-03T07:58:16;97316.75;;;8.89;54.28
56719;BME280;42597;40.636;0.278;2023-03-03T08:03:18;97312.03;;;8.45;52.94
56719;BME280;42597;40.636;0.278;2023-03-03T08:05:49;97339.41;;;8.17;51.09
56719;BME280;42597;40.636;0.278;2023-03-03T08:08:30;97331.19;;;7.28;55.73
56719;BME280;42597;40.636;0.278;2023-03-03T08:11:01;97327.50;;;7.41;54.91
56719;BME280;42597;40.636;0.278;2023-03-03T08:13:37;97328.34;;;8.69;53.38
56719;BME280;42597;40.636;0.278;2023-03-03T08:18:42;97325.91;;;7.96;53.40
56719;BME280;42597;40.636;0.278;2023-03-03T08:21:12;97328.16;;;10.47;51.21
56719;BME280;42597;40.636;0.278;2023-03-03T08:23:38;97336.34;;;8.99;49.71
56719;BME280;42597;40.636;0.278;2023-03-03T08:26:04;97323.78;;;10.43;49.02
56719;BME280;42597;40.636;0.278;2023-03-03T08:28:29;97333.22;;;7.78;52.28
56719;BME280;42597;40.636;0.278;2023-03-03T08:30:56;97339.47;;;9.22;51.40
56719;BME280;42597;40.636;0.278;2023-03-03T08:33:21;97336.16;;;8.32;51.13
56719;BME280;42597;40.636;0.278;2023-03-03T08:35:47;97342.50;;;8.99;51.46
56719;BME280;42597;40.636;0.278;2023-03-03T08:38:15;97336.34;;;9.65;48.42
56719;BME280;42597;40.636;0.278;2023-03-03T08:40:41;97337.41;;;9.52;50.75
56719;BME280;42597;40.636;0.278;2023-03-03T08:43:08;97336.91;;;9.04;51.51
56719;BME280;42597;40.636;0.278;2023-03-03T08:45:34;97355.53;;;8.97;49.06
56719;BME280;42597;40.636;0.278;2023-03-03T08:48:00;97348.81;;;8.40;50.68
56719;BME280;42597;40.636;0.278;2023-03-03T08:50:26;97331.94;;;9.27;50.88
56719;BME280;42597;40.636;0.278;2023-03-03T08:52:52;97349.28;;;9.05;52.28
56719;BME280;42597;40.636;0.278;2023-03-03T08:55:18;97336.84;;;10.81;49.81
56719;BME280;42597;40.636;0.278;2023-03-03T08:57:44;97336.00;;;9.79;48.91
56719;BME280;42597;40.636;0.278;2023-03-03T09:00:13;97347.66;;;9.58;51.10
56719;BME280;42597;40.636;0.278;2023-03-03T09:02:39;97349.28;;;9.05;51.42
56719;BME280;42597;40.636;0.278;2023-03-03T09:05:05;97340.63;;;9.78;49.26
56719;BME280;42597;40.636;0.278;2023-03-03T09:07:31;97355.13;;;9.07;48.95
56719;BME280;42597;40.636;0.278;2023-03-03T09:09:56;97344.16;;;9.46;49.12
56719;BME280;42597;40.636;0.278;2023-03-03T09:12:37;97340.22;;;10.13;51.07
56719;BME280;42597;40.636;0.278;2023-03-03T09:17:37;97347.59;;;9.34;47.50
56719;BME280;42597;40.636;0.278;2023-03-03T09:23:35;97352.06;;;9.63;51.66
56719;BME280;42597;40.636;0.278;2023-03-03T09:26:56;97340.16;;;9.76;49.00
56719;BME280;42597;40.636;0.278;2023-03-03T09:29:23;97349.34;;;9.18;48.83
56719;BME280;42597;40.636;0.278;2023-03-03T09:34:41;97338.75;;;11.21;47.40
56719;BME280;42597;40.636;0.278;2023-03-03T09:37:21;97352.03;;;10.45;49.14
56719;BME280;42597;40.636;0.278;2023-03-03T09:39:51;97350.53;;;8.66;49.03
56719;BME280;42597;40.636;0.278;2023-03-03T09:50:17;97366.69;;;9.08;49.22
56719;BME280;42597;40.636;0.278;2023-03-03T10:03:38;97360.84;;;9.84;48.16
56719;BME280;42597;40.636;0.278;2023-03-03T10:09:04;97374.34;;;9.84;47.74
56719;BME280;42597;40.636;0.278;2023-03-03T10:24:28;97374.50;;;9.55;47.36
56719;BME280;42597;40.636;0.278;2023-03-03T10:29:55;97380.03;;;9.58;46.92
56719;BME280;42597;40.636;0.278;2023-03-03T10:57:29;97397.28;;;9.78;45.91
56719;BME280;42597;40.636;0.278;2023-03-03T11:05:54;97396.88;;;9.55;45.97
56719;BME280;42597;40.636;0.278;2023-03-03T11:08:30;97398.75;;;9.88;46.63
56719;BME280;42597;40.636;0.278;2023-03-03T11:19:44;97396.47;;;9.66;44.23
56719;BME280;42597;40.636;0.278;2023-03-03T11:31:13;97397.84;;;10.42;45.14
56719;BME280;42597;40.636;0.278;2023-03-03T11:41:29;97381.03;;;11.13;42.75
56719;BME280;42597;40.636;0.278;2023-03-03T11:46:55;97391.72;;;10.69;42.64
56719;BME280;42597;40.636;0.278;2023-03-03T11:52:04;97388.44;;;10.14;43.59
56719;BME280;42597;40.636;0.278;2023-03-03T12:00:30;97387.03;;;10.42;44.16
56719;BME280;42597;40.636;0.278;2023-03-03T12:09:02;97379.44;;;11.68;44.23
56719;BME280;42597;40.636;0.278;2023-03-03T12:13:52;97374.09;;;12.31;44.23
56719;BME280;42597;40.636;0.278;2023-03-03T12:19:30;97367.41;;;11.81;41.94
56719;BME280;42597;40.636;0.278;2023-03-03T12:25:12;97366.28;;;12.46;44.16
56719;BME280;42597;40.636;0.278;2023-03-03T12:27:57;97379.56;;;10.75;41.75
56719;BME280;42597;40.636;0.278;2023-03-03T12:44:23;97347.72;;;12.28;43.62
56719;BME280;42597;40.636;0.278;2023-03-03T12:47:10;97351.44;;;11.76;42.98
56719;BME280;42597;40.636;0.278;2023-03-03T12:57:20;97328.56;;;11.58;42.81
56719;BME280;42597;40.636;0.278;2023-03-03T13:02:59;97320.13;;;12.77;43.52
56719;BME280;42597;40.636;0.278;2023-03-03T13:10:41;97316.63;;;11.91;45.08
56719;BME280;42597;40.636;0.278;2023-03-03T13:13:25;97329.13;;;11.07;41.11
56719;BME280;42597;40.636;0.278;2023-03-03T13:16:04;97331.88;;;11.23;41.05
56719;BME280;42597;40.636;0.278;2023-03-03T13:19:00;97327.66;;;11.10;44.80
56719;BME280;42597;40.636;0.278;2023-03-03T13:21:45;97329.31;;;11.43;41.55
56719;BME280;42597;40.636;0.278;2023-03-03T13:24:23;97339.72;;;11.00;40.64
56719;BME280;42597;40.636;0.278;2023-03-03T13:26:59;97330.78;;;11.12;43.44
56719;BME280;42597;40.636;0.278;2023-03-03T13:37:52;97325.59;;;11.19;39.84
56719;BME280;42597;40.636;0.278;2023-03-03T13:40:24;97319.09;;;11.36;40.62
56719;BME280;42597;40.636;0.278;2023-03-03T13:43:01;97326.16;;;11.12;40.30
56719;BME280;42597;40.636;0.278;2023-03-03T13:50:55;97319.59;;;12.88;43.58
56719;BME280;42597;40.636;0.278;2023-03-03T14:01:56;97313.59;;;11.48;40.70
56719;BME280;42597;40.636;0.278;2023-03-03T14:04:30;97315.06;;;11.02;39.41
56719;BME280;42597;40.636;0.278;2023-03-03T14:07:05;97321.63;;;11.45;39.57
56719;BME280;42597;40.636;0.278;2023-03-03T14:09:57;97305.19;;;11.37;39.99
56719;BME280;42597;40.636;0.278;2023-03-03T14:15:37;97309.47;;;12.14;44.43
56719;BME280;42597;40.636;0.278;2023-03-03T14:18:20;97308.78;;;12.52;43.74
56719;BME280;42597;40.636;0.278;2023-03-03T14:20:54;97310.69;;;12.01;39.92
56719;BME280;42597;40.636;0.278;2023-03-03T14:26:15;97309.09;;;11.68;40.97
56719;BME280;42597;40.636;0.278;2023-03-03T14:28:43;97307.47;;;11.35;40.47
56719;BME280;42597;40.636;0.278;2023-03-03T14:31:25;97309.34;;;11.47;39.78
56719;BME280;42597;40.636;0.278;2023-03-03T14:34:00;97308.59;;;12.10;42.31
56719;BME280;42597;40.636;0.278;2023-03-03T14:36:56;97309.91;;;11.41;39.96
56719;BME280;42597;40.636;0.278;2023-03-03T14:39:33;97312.41;;;11.46;39.26
56719;BME280;42597;40.636;0.278;2023-03-03T14:42:15;97314.25;;;11.14;39.85
56719;BME280;42597;40.636;0.278;2023-03-03T14:44:54;97302.66;;;11.89;45.03
56719;BME280;42597;40.636;0.278;2023-03-03T14:47:25;97307.22;;;12.71;44.40
56719;BME280;42597;40.636;0.278;2023-03-03T14:49:55;97299.50;;;12.53;42.48
56719;BME280;42597;40.636;0.278;2023-03-03T14:52:29;97309.28;;;12.77;43.01
56719;BME280;42597;40.636;0.278;2023-03-03T14:54:59;97294.50;;;12.20;39.32
56719;BME280;42597;40.636;0.278;2023-03-03T15:05:31;97315.31;;;12.00;40.00
56719;BME280;42597;40.636;0.278;2023-03-03T15:10:38;97315.66;;;12.50;41.95
56719;BME280;42597;40.636;0.278;2023-03-03T15:13:32;97312.06;;;11.63;38.37
56719;BME280;42597;40.636;0.278;2023-03-03T15:18:27;97303.56;;;12.28;40.47
56719;BME280;42597;40.636;0.278;2023-03-03T15:34:43;97295.31;;;13.14;43.07
56719;BME280;42597;40.636;0.278;2023-03-03T15:42:48;97295.41;;;13.60;43.23
56719;BME280;42597;40.636;0.278;2023-03-03T15:45:30;97287.88;;;13.73;43.29
56719;BME280;42597;40.636;0.278;2023-03-03T15:56:55;97311.19;;;12.22;41.50
56719;BME280;42597;40.636;0.278;2023-03-03T15:59:35;97309.00;;;13.02;43.59
56719;BME280;42597;40.636;0.278;2023-03-03T16:04:57;97307.28;;;12.55;43.23
56719;BME280;42597;40.636;0.278;2023-03-03T16:07:26;97316.16;;;12.36;41.48
56719;BME280;42597;40.636;0.278;2023-03-03T16:27:36;97313.72;;;13.44;44.38
56719;BME280;42597;40.636;0.278;2023-03-03T16:38:38;97333.09;;;11.70;42.20
56719;BME280;42597;40.636;0.278;2023-03-03T16:41:19;97334.56;;;13.20;45.47
56719;BME280;42597;40.636;0.278;2023-03-03T16:46:37;97344.19;;;12.44;42.90
56719;BME280;42597;40.636;0.278;2023-03-03T16:49:30;97341.03;;;12.42;44.51
56719;BME280;42597;40.636;0.278;2023-03-03T16:52:22;97346.47;;;12.42;41.90
56719;BME280;42597;40.636;0.278;2023-03-03T16:54:54;97350.66;;;12.55;45.93
56719;BME280;42597;40.636;0.278;2023-03-03T17:03:27;97356.38;;;11.43;43.59
56719;BME280;42597;40.636;0.278;2023-03-03T17:29:41;97372.53;;;11.99;47.38
56719;BME280;42597;40.636;0.278;2023-03-03T17:35:28;97375.50;;;12.25;43.39
56719;BME280;42597;40.636;0.278;2023-03-03T17:46:43;97386.31;;;12.25;46.94
56719;BME280;42597;40.636;0.278;2023-03-03T17:58:14;97410.69;;;11.37;44.31
56719;BME280;42597;40.636;0.278;2023-03-03T18:14:51;97428.75;;;11.61;46.25
56719;BME280;42597;40.636;0.278;2023-03-03T18:20:02;97437.97;;;11.04;47.60
56719;BME280;42597;40.636;0.278;2023-03-03T18:22:55;97440.47;;;10.73;49.99
56719;BME280;42597;40.636;0.278;2023-03-03T18:25:50;97451.50;;;11.45;47.49
56719;BME280;42597;40.636;0.278;2023-03-03T18:28:19;97449.56;;;11.05;47.94
56719;BME280;42597;40.636;0.278;2023-03-03T18:31:01;97457.22;;;11.15;46.31
56719;BME280;42597;40.636;0.278;2023-03-03T18:36:14;97470.13;;;10.24;46.51
56719;BME280;42597;40.636;0.278;2023-03-03T18:39:04;97454.47;;;10.62;46.61
56719;BME280;42597;40.636;0.278;2023-03-03T18:41:32;97458.06;;;10.79;47.61
56719;BME280;42597;40.636;0.278;2023-03-03T18:44:01;97469.16;;;11.14;46.53
56719;BME280;42597;40.636;0.278;2023-03-03T18:46:48;97483.66;;;9.91;46.38
56719;BME280;42597;40.636;0.278;2023-03-03T18:49:14;97492.03;;;10.55;46.22
56719;BME280;42597;40.636;0.278;2023-03-03T19:04:40;97468.97;;;10.12;49.00
56719;BME280;42597;40.636;0.278;2023-03-03T19:07:18;97483.06;;;10.18;48.34
56719;BME280;42597;40.636;0.278;2023-03-03T19:10:02;97471.38;;;10.14;46.80
56719;BME280;42597;40.636;0.278;2023-03-03T19:13:04;97477.06;;;10.00;48.13
56719;BME280;42597;40.636;0.278;2023-03-03T19:18:03;97484.00;;;9.89;47.93
56719;BME280;42597;40.636;0.278;2023-03-03T19:20:40;97479.16;;;9.82;49.89
56719;BME280;42597;40.636;0.278;2023-03-03T19:23:16;97482.31;;;9.97;46.92
56719;BME280;42597;40.636;0.278;2023-03-03T19:25:42;97472.78;;;10.57;47.08
56719;BME280;42597;40.636;0.278;2023-03-03T19:38:35;97491.16;;;10.06;47.60
56719;BME280;42597;40.636;0.278;2023-03-03T19:44:11;97485.06;;;10.09;47.31
56719;BME280;42597;40.636;0.278;2023-03-03T19:47:02;97489.44;;;10.01;47.17
56719;BME280;42597;40.636;0.278;2023-03-03T20:00:49;97480.31;;;11.00;47.89
56719;BME280;42597;40.636;0.278;2023-03-03T20:06:19;97486.88;;;10.50;48.10